Aviation Digital Data Service (ADDS)

Output produced by METARs form (1854 UTC 24 June 2017)
found at http://aviationweather.gov/adds/metars/
 
KJFK 241727Z 2418/2524 28017G27KT P6SM SCT050 
     FM250000 26012KT P6SM FEW050 
     FM250600 31006KT P6SM SCT070 
     FM251200 35003KT P6SM FEW070 
     FM251600 21008KT P6SM FEW070